sensor_id;sensor_type;location;lat;lon;timestamp;P1;durP1;ratioP1;P2;durP2;ratioP2
17631;SDS011;8934;51.194;17.150;2024-02-23T00:02:25;8.15;;;4.28;;
17631;SDS011;8934;51.194;17.150;2024-02-23T00:05:14;4.90;;;3.30;;
17631;SDS011;8934;51.194;17.150;2024-02-23T00:08:01;7.40;;;2.97;;
17631;SDS011;8934;51.194;17.150;2024-02-23T00:10:49;4.78;;;3.10;;
17631;SDS011;8934;51.194;17.150;2024-02-23T00:13:36;2.80;;;2.35;;
17631;SDS011;8934;51.194;17.150;2024-02-23T00:16:24;4.57;;;2.88;;
17631;SDS011;8934;51.194;17.150;2024-02-23T00:19:12;5.03;;;2.78;;
17631;SDS011;8934;51.194;17.150;2024-02-23T00:22:02;3.58;;;2.00;;
17631;SDS011;8934;51.194;17.150;2024-02-23T00:24:53;10.25;;;2.97;;
17631;SDS011;8934;51.194;17.150;2024-02-23T00:27:41;3.35;;;2.15;;
17631;SDS011;8934;51.194;17.150;2024-02-23T00:30:29;3.97;;;2.05;;
17631;SDS011;8934;51.194;17.150;2024-02-23T00:33:16;4.43;;;2.22;;
17631;SDS011;8934;51.194;17.150;2024-02-23T00:36:04;3.13;;;1.88;;
17631;SDS011;8934;51.194;17.150;2024-02-23T00:38:53;4.95;;;1.92;;
17631;SDS011;8934;51.194;17.150;2024-02-23T00:41:40;2.63;;;2.00;;
17631;SDS011;8934;51.194;17.150;2024-02-23T00:44:28;2.08;;;1.70;;
17631;SDS011;8934;51.194;17.150;2024-02-23T00:47:15;3.03;;;1.52;;
17631;SDS011;8934;51.194;17.150;2024-02-23T00:50:03;3.22;;;1.70;;
17631;SDS011;8934;51.194;17.150;2024-02-23T00:52:50;3.78;;;1.08;;
17631;SDS011;8934;51.194;17.150;2024-02-23T00:55:40;2.45;;;1.67;;
17631;SDS011;8934;51.194;17.150;2024-02-23T00:58:28;5.38;;;1.73;;
17631;SDS011;8934;51.194;17.150;2024-02-23T01:01:15;2.85;;;2.30;;
17631;SDS011;8934;51.194;17.150;2024-02-23T01:04:03;2.72;;;1.55;;
17631;SDS011;8934;51.194;17.150;2024-02-23T01:06:50;2.83;;;1.65;;
17631;SDS011;8934;51.194;17.150;2024-02-23T01:09:38;2.67;;;0.95;;
17631;SDS011;8934;51.194;17.150;2024-02-23T01:12:27;1.67;;;1.20;;
17631;SDS011;8934;51.194;17.150;2024-02-23T01:15:14;1.95;;;1.27;;
17631;SDS011;8934;51.194;17.150;2024-02-23T01:18:03;3.92;;;1.10;;
17631;SDS011;8934;51.194;17.150;2024-02-23T01:20:51;4.60;;;1.40;;
17631;SDS011;8934;51.194;17.150;2024-02-23T01:23:39;2.55;;;1.17;;
17631;SDS011;8934;51.194;17.150;2024-02-23T01:26:26;1.75;;;0.98;;
17631;SDS011;8934;51.194;17.150;2024-02-23T01:29:15;2.85;;;1.40;;
17631;SDS011;8934;51.194;17.150;2024-02-23T01:32:03;2.13;;;1.52;;
17631;SDS011;8934;51.194;17.150;2024-02-23T01:34:51;1.65;;;1.27;;
17631;SDS011;8934;51.194;17.150;2024-02-23T01:37:38;2.03;;;1.10;;
17631;SDS011;8934;51.194;17.150;2024-02-23T01:40:26;1.60;;;1.15;;
17631;SDS011;8934;51.194;17.150;2024-02-23T01:43:14;1.95;;;0.93;;
17631;SDS011;8934;51.194;17.150;2024-02-23T01:46:03;1.63;;;1.08;;
17631;SDS011;8934;51.194;17.150;2024-02-23T01:48:51;1.42;;;0.90;;
17631;SDS011;8934;51.194;17.150;2024-02-23T01:51:38;2.33;;;1.08;;
17631;SDS011;8934;51.194;17.150;2024-02-23T01:54:26;1.20;;;0.70;;
17631;SDS011;8934;51.194;17.150;2024-02-23T01:57:15;2.80;;;1.23;;
17631;SDS011;8934;51.194;17.150;2024-02-23T02:00:22;2.00;;;1.38;;
17631;SDS011;8934;51.194;17.150;2024-02-23T02:03:14;2.35;;;1.23;;
17631;SDS011;8934;51.194;17.150;2024-02-23T02:06:01;2.75;;;1.00;;
17631;SDS011;8934;51.194;17.150;2024-02-23T02:08:50;1.30;;;0.90;;
17631;SDS011;8934;51.194;17.150;2024-02-23T02:11:44;1.65;;;1.15;;
17631;SDS011;8934;51.194;17.150;2024-02-23T02:14:32;1.55;;;1.10;;
17631;SDS011;8934;51.194;17.150;2024-02-23T02:17:20;3.83;;;1.55;;
17631;SDS011;8934;51.194;17.150;2024-02-23T02:20:11;6.82;;;1.48;;
17631;SDS011;8934;51.194;17.150;2024-02-23T02:22:59;3.13;;;1.85;;
17631;SDS011;8934;51.194;17.150;2024-02-23T02:25:51;1.98;;;1.55;;
17631;SDS011;8934;51.194;17.150;2024-02-23T02:28:39;2.88;;;1.58;;
17631;SDS011;8934;51.194;17.150;2024-02-23T02:31:27;2.30;;;1.45;;
17631;SDS011;8934;51.194;17.150;2024-02-23T02:34:14;2.38;;;1.50;;
17631;SDS011;8934;51.194;17.150;2024-02-23T02:37:03;2.20;;;1.30;;
17631;SDS011;8934;51.194;17.150;2024-02-23T02:39:50;3.38;;;1.70;;
17631;SDS011;8934;51.194;17.150;2024-02-23T02:42:38;2.97;;;2.17;;
17631;SDS011;8934;51.194;17.150;2024-02-23T02:45:26;2.60;;;1.85;;
17631;SDS011;8934;51.194;17.150;2024-02-23T02:48:13;2.33;;;1.50;;
17631;SDS011;8934;51.194;17.150;2024-02-23T02:51:01;3.63;;;2.50;;
17631;SDS011;8934;51.194;17.150;2024-02-23T02:53:50;4.53;;;2.53;;
17631;SDS011;8934;51.194;17.150;2024-02-23T02:56:41;3.95;;;1.85;;
17631;SDS011;8934;51.194;17.150;2024-02-23T02:59:29;3.42;;;2.08;;
17631;SDS011;8934;51.194;17.150;2024-02-23T03:02:20;2.05;;;1.73;;
17631;SDS011;8934;51.194;17.150;2024-02-23T03:05:08;2.92;;;2.03;;
17631;SDS011;8934;51.194;17.150;2024-02-23T03:07:55;3.45;;;2.05;;
17631;SDS011;8934;51.194;17.150;2024-02-23T03:10:44;3.95;;;2.55;;
17631;SDS011;8934;51.194;17.150;2024-02-23T03:13:32;3.90;;;2.38;;
17631;SDS011;8934;51.194;17.150;2024-02-23T03:16:20;4.88;;;2.38;;
17631;SDS011;8934;51.194;17.150;2024-02-23T03:19:08;5.53;;;2.00;;
17631;SDS011;8934;51.194;17.150;2024-02-23T03:21:56;4.15;;;2.22;;
17631;SDS011;8934;51.194;17.150;2024-02-23T03:24:43;3.55;;;2.00;;
17631;SDS011;8934;51.194;17.150;2024-02-23T03:27:32;2.28;;;1.70;;
17631;SDS011;8934;51.194;17.150;2024-02-23T03:30:19;4.05;;;1.77;;
17631;SDS011;8934;51.194;17.150;2024-02-23T03:33:07;3.83;;;2.05;;
17631;SDS011;8934;51.194;17.150;2024-02-23T03:35:54;3.22;;;2.28;;
17631;SDS011;8934;51.194;17.150;2024-02-23T03:38:42;3.30;;;1.75;;
17631;SDS011;8934;51.194;17.150;2024-02-23T03:41:30;3.88;;;1.80;;
17631;SDS011;8934;51.194;17.150;2024-02-23T03:44:18;3.45;;;2.03;;
17631;SDS011;8934;51.194;17.150;2024-02-23T03:47:06;3.47;;;2.25;;
17631;SDS011;8934;51.194;17.150;2024-02-23T03:49:54;2.53;;;1.65;;
17631;SDS011;8934;51.194;17.150;2024-02-23T03:52:41;2.45;;;1.75;;
17631;SDS011;8934;51.194;17.150;2024-02-23T03:55:29;3.58;;;1.85;;
17631;SDS011;8934;51.194;17.150;2024-02-23T03:58:17;2.47;;;1.80;;
17631;SDS011;8934;51.194;17.150;2024-02-23T04:01:05;3.28;;;1.77;;
17631;SDS011;8934;51.194;17.150;2024-02-23T04:03:53;4.53;;;1.70;;
17631;SDS011;8934;51.194;17.150;2024-02-23T04:06:40;1.92;;;1.65;;
17631;SDS011;8934;51.194;17.150;2024-02-23T04:09:28;3.08;;;1.70;;
17631;SDS011;8934;51.194;17.150;2024-02-23T04:12:15;4.43;;;2.17;;
17631;SDS011;8934;51.194;17.150;2024-02-23T04:15:03;4.53;;;2.17;;
17631;SDS011;8934;51.194;17.150;2024-02-23T04:17:53;4.15;;;2.25;;
17631;SDS011;8934;51.194;17.150;2024-02-23T04:20:41;4.25;;;2.15;;
17631;SDS011;8934;51.194;17.150;2024-02-23T04:23:28;3.17;;;1.95;;
17631;SDS011;8934;51.194;17.150;2024-02-23T04:26:15;3.22;;;2.10;;
17631;SDS011;8934;51.194;17.150;2024-02-23T04:29:03;2.17;;;1.63;;
17631;SDS011;8934;51.194;17.150;2024-02-23T04:31:50;3.63;;;2.00;;
17631;SDS011;8934;51.194;17.150;2024-02-23T04:34:39;2.15;;;1.63;;
17631;SDS011;8934;51.194;17.150;2024-02-23T04:37:27;3.42;;;1.80;;
17631;SDS011;8934;51.194;17.150;2024-02-23T04:40:17;2.85;;;1.50;;
17631;SDS011;8934;51.194;17.150;2024-02-23T04:43:04;3.08;;;1.63;;
17631;SDS011;8934;51.194;17.150;2024-02-23T04:45:52;2.78;;;1.98;;
17631;SDS011;8934;51.194;17.150;2024-02-23T04:48:39;2.97;;;1.95;;
17631;SDS011;8934;51.194;17.150;2024-02-23T04:51:28;3.85;;;2.33;;
17631;SDS011;8934;51.194;17.150;2024-02-23T04:54:16;2.22;;;1.52;;
17631;SDS011;8934;51.194;17.150;2024-02-23T04:57:03;3.25;;;2.17;;
17631;SDS011;8934;51.194;17.150;2024-02-23T04:59:51;3.60;;;1.83;;
17631;SDS011;8934;51.194;17.150;2024-02-23T05:02:39;2.55;;;1.38;;
17631;SDS011;8934;51.194;17.150;2024-02-23T05:05:26;6.43;;;2.42;;
17631;SDS011;8934;51.194;17.150;2024-02-23T05:08:15;3.15;;;1.83;;
17631;SDS011;8934;51.194;17.150;2024-02-23T05:11:02;3.60;;;2.38;;
17631;SDS011;8934;51.194;17.150;2024-02-23T05:13:50;3.70;;;2.20;;
17631;SDS011;8934;51.194;17.150;2024-02-23T05:16:37;5.35;;;2.42;;
17631;SDS011;8934;51.194;17.150;2024-02-23T05:19:25;2.70;;;2.05;;
17631;SDS011;8934;51.194;17.150;2024-02-23T05:22:12;3.58;;;1.88;;
17631;SDS011;8934;51.194;17.150;2024-02-23T05:25:01;3.75;;;2.22;;
17631;SDS011;8934;51.194;17.150;2024-02-23T05:27:49;2.72;;;2.25;;
17631;SDS011;8934;51.194;17.150;2024-02-23T05:30:36;2.40;;;1.80;;
17631;SDS011;8934;51.194;17.150;2024-02-23T05:33:24;2.63;;;2.03;;
17631;SDS011;8934;51.194;17.150;2024-02-23T05:36:11;6.05;;;2.15;;
17631;SDS011;8934;51.194;17.150;2024-02-23T05:38:58;4.53;;;2.78;;
17631;SDS011;8934;51.194;17.150;2024-02-23T05:41:47;4.07;;;1.73;;
17631;SDS011;8934;51.194;17.150;2024-02-23T05:44:34;3.30;;;1.98;;
17631;SDS011;8934;51.194;17.150;2024-02-23T05:47:21;4.53;;;2.38;;
17631;SDS011;8934;51.194;17.150;2024-02-23T05:50:09;3.83;;;2.25;;
17631;SDS011;8934;51.194;17.150;2024-02-23T05:52:56;4.20;;;2.10;;
17631;SDS011;8934;51.194;17.150;2024-02-23T05:55:44;1.92;;;1.70;;
17631;SDS011;8934;51.194;17.150;2024-02-23T05:58:32;4.85;;;2.33;;
17631;SDS011;8934;51.194;17.150;2024-02-23T06:01:20;3.50;;;2.08;;
17631;SDS011;8934;51.194;17.150;2024-02-23T06:04:07;2.38;;;1.50;;
17631;SDS011;8934;51.194;17.150;2024-02-23T06:06:55;5.90;;;2.33;;
17631;SDS011;8934;51.194;17.150;2024-02-23T06:09:42;2.40;;;1.73;;
17631;SDS011;8934;51.194;17.150;2024-02-23T06:12:30;3.67;;;2.28;;
17631;SDS011;8934;51.194;17.150;2024-02-23T06:15:19;3.50;;;2.00;;
17631;SDS011;8934;51.194;17.150;2024-02-23T06:18:06;3.20;;;2.10;;
17631;SDS011;8934;51.194;17.150;2024-02-23T06:20:53;3.20;;;1.88;;
17631;SDS011;8934;51.194;17.150;2024-02-23T06:23:41;2.42;;;1.95;;
17631;SDS011;8934;51.194;17.150;2024-02-23T06:26:28;2.75;;;2.38;;
17631;SDS011;8934;51.194;17.150;2024-02-23T06:29:16;3.03;;;2.20;;
17631;SDS011;8934;51.194;17.150;2024-02-23T06:32:05;3.03;;;2.25;;
17631;SDS011;8934;51.194;17.150;2024-02-23T06:34:53;2.40;;;1.70;;
17631;SDS011;8934;51.194;17.150;2024-02-23T06:37:45;4.10;;;2.30;;
17631;SDS011;8934;51.194;17.150;2024-02-23T06:40:33;2.80;;;1.60;;
17631;SDS011;8934;51.194;17.150;2024-02-23T06:43:36;4.00;;;1.98;;
17631;SDS011;8934;51.194;17.150;2024-02-23T06:46:23;2.25;;;1.55;;
17631;SDS011;8934;51.194;17.150;2024-02-23T06:49:12;3.15;;;1.92;;
17631;SDS011;8934;51.194;17.150;2024-02-23T06:52:00;2.88;;;1.58;;
17631;SDS011;8934;51.194;17.150;2024-02-23T06:54:47;4.60;;;1.77;;
17631;SDS011;8934;51.194;17.150;2024-02-23T06:57:35;3.22;;;1.88;;
17631;SDS011;8934;51.194;17.150;2024-02-23T07:00:22;3.38;;;1.77;;
17631;SDS011;8934;51.194;17.150;2024-02-23T07:03:10;1.65;;;1.55;;
17631;SDS011;8934;51.194;17.150;2024-02-23T07:05:58;4.57;;;2.13;;
17631;SDS011;8934;51.194;17.150;2024-02-23T07:08:46;2.80;;;1.48;;
17631;SDS011;8934;51.194;17.150;2024-02-23T07:11:33;3.50;;;2.00;;
17631;SDS011;8934;51.194;17.150;2024-02-23T07:14:21;2.38;;;1.52;;
17631;SDS011;8934;51.194;17.150;2024-02-23T07:17:08;2.65;;;1.67;;
17631;SDS011;8934;51.194;17.150;2024-02-23T07:19:56;3.00;;;1.73;;
17631;SDS011;8934;51.194;17.150;2024-02-23T07:22:53;3.00;;;2.70;;
17631;SDS011;8934;51.194;17.150;2024-02-23T07:25:41;3.53;;;2.78;;
17631;SDS011;8934;51.194;17.150;2024-02-23T07:28:28;2.15;;;1.33;;
17631;SDS011;8934;51.194;17.150;2024-02-23T07:31:16;3.55;;;1.60;;
17631;SDS011;8934;51.194;17.150;2024-02-23T07:34:03;4.15;;;1.67;;
17631;SDS011;8934;51.194;17.150;2024-02-23T07:36:51;2.20;;;1.42;;
17631;SDS011;8934;51.194;17.150;2024-02-23T07:39:40;2.05;;;1.58;;
17631;SDS011;8934;51.194;17.150;2024-02-23T07:42:28;1.33;;;1.00;;
17631;SDS011;8934;51.194;17.150;2024-02-23T07:45:15;1.60;;;1.40;;
17631;SDS011;8934;51.194;17.150;2024-02-23T07:48:03;2.25;;;1.38;;
17631;SDS011;8934;51.194;17.150;2024-02-23T07:50:51;1.50;;;1.08;;
17631;SDS011;8934;51.194;17.150;2024-02-23T07:53:39;1.98;;;1.33;;
17631;SDS011;8934;51.194;17.150;2024-02-23T07:56:28;4.88;;;2.75;;
17631;SDS011;8934;51.194;17.150;2024-02-23T07:59:16;3.80;;;2.25;;
17631;SDS011;8934;51.194;17.150;2024-02-23T08:02:04;2.67;;;1.35;;
17631;SDS011;8934;51.194;17.150;2024-02-23T08:04:51;3.13;;;2.38;;
17631;SDS011;8934;51.194;17.150;2024-02-23T08:07:39;4.75;;;2.70;;
17631;SDS011;8934;51.194;17.150;2024-02-23T08:10:27;4.47;;;2.60;;
17631;SDS011;8934;51.194;17.150;2024-02-23T08:13:16;3.65;;;2.10;;
17631;SDS011;8934;51.194;17.150;2024-02-23T08:16:03;3.65;;;2.33;;
17631;SDS011;8934;51.194;17.150;2024-02-23T08:18:51;4.93;;;3.00;;
17631;SDS011;8934;51.194;17.150;2024-02-23T08:21:39;10.20;;;5.28;;
17631;SDS011;8934;51.194;17.150;2024-02-23T08:24:26;7.25;;;3.88;;
17631;SDS011;8934;51.194;17.150;2024-02-23T08:27:13;5.75;;;3.03;;
17631;SDS011;8934;51.194;17.150;2024-02-23T08:30:03;4.93;;;2.42;;
17631;SDS011;8934;51.194;17.150;2024-02-23T08:32:51;2.90;;;2.10;;
17631;SDS011;8934;51.194;17.150;2024-02-23T08:35:38;2.45;;;1.88;;
17631;SDS011;8934;51.194;17.150;2024-02-23T08:38:26;4.25;;;1.88;;
17631;SDS011;8934;51.194;17.150;2024-02-23T08:41:14;4.28;;;1.60;;
17631;SDS011;8934;51.194;17.150;2024-02-23T08:44:01;2.78;;;1.50;;
17631;SDS011;8934;51.194;17.150;2024-02-23T08:46:50;3.10;;;1.33;;
17631;SDS011;8934;51.194;17.150;2024-02-23T08:49:38;4.93;;;1.40;;
17631;SDS011;8934;51.194;17.150;2024-02-23T08:52:26;2.67;;;1.10;;
17631;SDS011;8934;51.194;17.150;2024-02-23T08:55:13;1.63;;;1.40;;
17631;SDS011;8934;51.194;17.150;2024-02-23T08:58:01;2.70;;;1.40;;
17631;SDS011;8934;51.194;17.150;2024-02-23T09:00:48;2.10;;;1.40;;
17631;SDS011;8934;51.194;17.150;2024-02-23T09:03:37;2.08;;;1.17;;
17631;SDS011;8934;51.194;17.150;2024-02-23T09:06:25;2.88;;;1.10;;
17631;SDS011;8934;51.194;17.150;2024-02-23T09:09:13;1.48;;;0.70;;
17631;SDS011;8934;51.194;17.150;2024-02-23T09:12:00;1.30;;;0.70;;
17631;SDS011;8934;51.194;17.150;2024-02-23T09:14:48;1.23;;;0.60;;
17631;SDS011;8934;51.194;17.150;2024-02-23T09:17:35;2.03;;;0.57;;
17631;SDS011;8934;51.194;17.150;2024-02-23T09:20:24;1.95;;;0.80;;
17631;SDS011;8934;51.194;17.150;2024-02-23T09:23:15;1.95;;;0.75;;
17631;SDS011;8934;51.194;17.150;2024-02-23T09:26:08;3.03;;;0.60;;
17631;SDS011;8934;51.194;17.150;2024-02-23T09:28:56;2.38;;;0.50;;
17631;SDS011;8934;51.194;17.150;2024-02-23T09:31:44;2.63;;;0.52;;
17631;SDS011;8934;51.194;17.150;2024-02-23T09:34:31;1.08;;;0.50;;
17631;SDS011;8934;51.194;17.150;2024-02-23T09:37:20;0.40;;;0.35;;
17631;SDS011;8934;51.194;17.150;2024-02-23T09:40:07;1.70;;;0.40;;
17631;SDS011;8934;51.194;17.150;2024-02-23T09:42:56;1.02;;;0.30;;
17631;SDS011;8934;51.194;17.150;2024-02-23T09:45:45;1.42;;;0.40;;
17631;SDS011;8934;51.194;17.150;2024-02-23T09:48:33;0.95;;;0.40;;
17631;SDS011;8934;51.194;17.150;2024-02-23T09:51:25;2.47;;;0.30;;
17631;SDS011;8934;51.194;17.150;2024-02-23T09:54:14;1.27;;;0.47;;
17631;SDS011;8934;51.194;17.150;2024-02-23T09:57:06;1.30;;;0.73;;
17631;SDS011;8934;51.194;17.150;2024-02-23T09:59:54;1.42;;;0.50;;
17631;SDS011;8934;51.194;17.150;2024-02-23T10:02:43;1.00;;;0.50;;
17631;SDS011;8934;51.194;17.150;2024-02-23T10:05:30;4.63;;;1.02;;
17631;SDS011;8934;51.194;17.150;2024-02-23T10:08:23;0.45;;;0.38;;
17631;SDS011;8934;51.194;17.150;2024-02-23T10:11:12;1.15;;;0.60;;
17631;SDS011;8934;51.194;17.150;2024-02-23T10:14:01;1.10;;;0.40;;
17631;SDS011;8934;51.194;17.150;2024-02-23T10:16:49;0.93;;;0.50;;
17631;SDS011;8934;51.194;17.150;2024-02-23T10:19:39;1.70;;;0.82;;
17631;SDS011;8934;51.194;17.150;2024-02-23T10:22:27;2.40;;;0.50;;
17631;SDS011;8934;51.194;17.150;2024-02-23T10:25:17;1.73;;;0.63;;
17631;SDS011;8934;51.194;17.150;2024-02-23T10:28:06;1.20;;;0.60;;
17631;SDS011;8934;51.194;17.150;2024-02-23T10:30:55;1.70;;;0.65;;
17631;SDS011;8934;51.194;17.150;2024-02-23T10:33:42;1.30;;;0.65;;
17631;SDS011;8934;51.194;17.150;2024-02-23T10:36:33;0.93;;;0.60;;
17631;SDS011;8934;51.194;17.150;2024-02-23T10:39:21;2.55;;;0.82;;
17631;SDS011;8934;51.194;17.150;2024-02-23T10:42:11;1.85;;;0.73;;
17631;SDS011;8934;51.194;17.150;2024-02-23T10:45:04;3.15;;;0.70;;
17631;SDS011;8934;51.194;17.150;2024-02-23T10:47:54;1.10;;;0.50;;
17631;SDS011;8934;51.194;17.150;2024-02-23T10:50:43;1.42;;;0.60;;
17631;SDS011;8934;51.194;17.150;2024-02-23T10:53:31;2.80;;;1.02;;
17631;SDS011;8934;51.194;17.150;2024-02-23T10:56:19;1.65;;;0.65;;
17631;SDS011;8934;51.194;17.150;2024-02-23T10:59:08;0.88;;;0.50;;
17631;SDS011;8934;51.194;17.150;2024-02-23T11:01:57;0.82;;;0.45;;
17631;SDS011;8934;51.194;17.150;2024-02-23T11:04:46;1.15;;;0.50;;
17631;SDS011;8934;51.194;17.150;2024-02-23T11:07:37;1.05;;;0.40;;
17631;SDS011;8934;51.194;17.150;2024-02-23T11:10:25;1.85;;;0.40;;
17631;SDS011;8934;51.194;17.150;2024-02-23T11:13:15;1.33;;;0.55;;
17631;SDS011;8934;51.194;17.150;2024-02-23T11:16:04;1.23;;;0.52;;
17631;SDS011;8934;51.194;17.150;2024-02-23T11:19:03;1.52;;;0.70;;
17631;SDS011;8934;51.194;17.150;2024-02-23T11:21:52;1.30;;;0.73;;
17631;SDS011;8934;51.194;17.150;2024-02-23T11:24:42;1.02;;;0.68;;
17631;SDS011;8934;51.194;17.150;2024-02-23T11:27:36;1.20;;;0.60;;
17631;SDS011;8934;51.194;17.150;2024-02-23T11:30:26;1.35;;;0.68;;
17631;SDS011;8934;51.194;17.150;2024-02-23T11:33:14;1.27;;;0.60;;
17631;SDS011;8934;51.194;17.150;2024-02-23T11:36:06;0.82;;;0.47;;
17631;SDS011;8934;51.194;17.150;2024-02-23T11:38:54;2.10;;;0.50;;
17631;SDS011;8934;51.194;17.150;2024-02-23T11:41:43;1.08;;;0.40;;
17631;SDS011;8934;51.194;17.150;2024-02-23T11:44:34;1.15;;;0.40;;
17631;SDS011;8934;51.194;17.150;2024-02-23T11:47:21;1.75;;;0.45;;
17631;SDS011;8934;51.194;17.150;2024-02-23T11:50:08;1.90;;;0.50;;
17631;SDS011;8934;51.194;17.150;2024-02-23T11:52:57;0.90;;;0.50;;
17631;SDS011;8934;51.194;17.150;2024-02-23T11:55:47;1.00;;;0.50;;
17631;SDS011;8934;51.194;17.150;2024-02-23T11:58:35;1.20;;;0.55;;
17631;SDS011;8934;51.194;17.150;2024-02-23T12:01:22;1.27;;;0.55;;
17631;SDS011;8934;51.194;17.150;2024-02-23T12:04:10;1.38;;;0.50;;
17631;SDS011;8934;51.194;17.150;2024-02-23T12:06:57;0.75;;;0.40;;
17631;SDS011;8934;51.194;17.150;2024-02-23T12:09:45;1.38;;;0.60;;
17631;SDS011;8934;51.194;17.150;2024-02-23T12:12:33;1.40;;;0.60;;
17631;SDS011;8934;51.194;17.150;2024-02-23T12:15:21;1.67;;;0.50;;
17631;SDS011;8934;51.194;17.150;2024-02-23T12:18:10;1.88;;;0.70;;
17631;SDS011;8934;51.194;17.150;2024-02-23T12:21:00;2.00;;;0.73;;
17631;SDS011;8934;51.194;17.150;2024-02-23T12:23:48;2.22;;;0.70;;
17631;SDS011;8934;51.194;17.150;2024-02-23T12:26:38;1.90;;;0.70;;
17631;SDS011;8934;51.194;17.150;2024-02-23T12:29:25;1.52;;;0.50;;
17631;SDS011;8934;51.194;17.150;2024-02-23T12:32:13;1.10;;;0.60;;
17631;SDS011;8934;51.194;17.150;2024-02-23T12:35:01;1.02;;;0.68;;
17631;SDS011;8934;51.194;17.150;2024-02-23T12:37:50;0.95;;;0.50;;
17631;SDS011;8934;51.194;17.150;2024-02-23T12:40:37;1.40;;;0.60;;
17631;SDS011;8934;51.194;17.150;2024-02-23T12:43:26;1.30;;;0.82;;
17631;SDS011;8934;51.194;17.150;2024-02-23T12:46:14;1.92;;;0.77;;
17631;SDS011;8934;51.194;17.150;2024-02-23T12:49:01;0.60;;;0.50;;
17631;SDS011;8934;51.194;17.150;2024-02-23T12:51:49;2.10;;;0.70;;
17631;SDS011;8934;51.194;17.150;2024-02-23T12:54:37;0.90;;;0.50;;
17631;SDS011;8934;51.194;17.150;2024-02-23T12:57:24;0.73;;;0.57;;
17631;SDS011;8934;51.194;17.150;2024-02-23T13:00:14;1.83;;;0.60;;
17631;SDS011;8934;51.194;17.150;2024-02-23T13:03:02;1.52;;;0.70;;
17631;SDS011;8934;51.194;17.150;2024-02-23T13:05:50;1.10;;;0.40;;
17631;SDS011;8934;51.194;17.150;2024-02-23T13:08:38;1.05;;;0.82;;
17631;SDS011;8934;51.194;17.150;2024-02-23T13:11:26;1.40;;;0.70;;
17631;SDS011;8934;51.194;17.150;2024-02-23T13:14:13;2.53;;;1.00;;
17631;SDS011;8934;51.194;17.150;2024-02-23T13:17:03;2.40;;;0.98;;
17631;SDS011;8934;51.194;17.150;2024-02-23T13:19:51;2.10;;;1.20;;
17631;SDS011;8934;51.194;17.150;2024-02-23T13:22:55;2.95;;;1.20;;
17631;SDS011;8934;51.194;17.150;2024-02-23T13:25:44;2.92;;;1.52;;
17631;SDS011;8934;51.194;17.150;2024-02-23T13:28:32;0.65;;;0.63;;
17631;SDS011;8934;51.194;17.150;2024-02-23T13:31:19;1.95;;;1.20;;
17631;SDS011;8934;51.194;17.150;2024-02-23T13:34:08;1.35;;;1.15;;
17631;SDS011;8934;51.194;17.150;2024-02-23T13:36:56;2.42;;;1.15;;
17631;SDS011;8934;51.194;17.150;2024-02-23T13:39:43;1.05;;;0.50;;
17631;SDS011;8934;51.194;17.150;2024-02-23T13:42:31;1.63;;;1.25;;
17631;SDS011;8934;51.194;17.150;2024-02-23T13:45:19;1.88;;;1.02;;
17631;SDS011;8934;51.194;17.150;2024-02-23T13:48:09;4.57;;;1.58;;
17631;SDS011;8934;51.194;17.150;2024-02-23T13:50:59;3.33;;;1.67;;
17631;SDS011;8934;51.194;17.150;2024-02-23T13:53:49;1.95;;;0.93;;
17631;SDS011;8934;51.194;17.150;2024-02-23T13:56:36;3.05;;;1.30;;
17631;SDS011;8934;51.194;17.150;2024-02-23T13:59:24;5.38;;;0.80;;
17631;SDS011;8934;51.194;17.150;2024-02-23T14:02:11;4.03;;;1.88;;
17631;SDS011;8934;51.194;17.150;2024-02-23T14:05:00;1.77;;;0.73;;
17631;SDS011;8934;51.194;17.150;2024-02-23T14:07:50;4.22;;;1.58;;
17631;SDS011;8934;51.194;17.150;2024-02-23T14:10:39;2.50;;;1.20;;
17631;SDS011;8934;51.194;17.150;2024-02-23T14:13:28;3.53;;;1.48;;
17631;SDS011;8934;51.194;17.150;2024-02-23T14:16:16;2.60;;;1.65;;
17631;SDS011;8934;51.194;17.150;2024-02-23T14:19:04;5.75;;;1.55;;
17631;SDS011;8934;51.194;17.150;2024-02-23T14:21:51;3.40;;;1.45;;
17631;SDS011;8934;51.194;17.150;2024-02-23T14:24:40;2.38;;;1.35;;
17631;SDS011;8934;51.194;17.150;2024-02-23T14:27:27;2.60;;;0.90;;
17631;SDS011;8934;51.194;17.150;2024-02-23T14:30:17;2.15;;;1.20;;
17631;SDS011;8934;51.194;17.150;2024-02-23T14:33:04;0.90;;;0.82;;
17631;SDS011;8934;51.194;17.150;2024-02-23T14:35:52;3.38;;;0.80;;
17631;SDS011;8934;51.194;17.150;2024-02-23T14:38:41;1.95;;;1.05;;
17631;SDS011;8934;51.194;17.150;2024-02-23T14:41:30;1.80;;;0.75;;
17631;SDS011;8934;51.194;17.150;2024-02-23T14:44:17;1.42;;;1.02;;
17631;SDS011;8934;51.194;17.150;2024-02-23T14:47:05;1.00;;;0.82;;
17631;SDS011;8934;51.194;17.150;2024-02-23T14:49:52;1.33;;;0.73;;
17631;SDS011;8934;51.194;17.150;2024-02-23T14:52:40;2.90;;;1.25;;
17631;SDS011;8934;51.194;17.150;2024-02-23T14:55:29;1.92;;;1.02;;
17631;SDS011;8934;51.194;17.150;2024-02-23T14:58:18;2.50;;;1.00;;
17631;SDS011;8934;51.194;17.150;2024-02-23T15:01:06;2.45;;;1.52;;
17631;SDS011;8934;51.194;17.150;2024-02-23T15:03:54;0.90;;;0.55;;
17631;SDS011;8934;51.194;17.150;2024-02-23T15:06:41;2.42;;;0.80;;
17631;SDS011;8934;51.194;17.150;2024-02-23T15:09:29;0.70;;;0.60;;
17631;SDS011;8934;51.194;17.150;2024-02-23T15:12:16;2.50;;;0.82;;
17631;SDS011;8934;51.194;17.150;2024-02-23T15:15:06;1.55;;;0.73;;
17631;SDS011;8934;51.194;17.150;2024-02-23T15:17:55;2.35;;;0.63;;
17631;SDS011;8934;51.194;17.150;2024-02-23T15:20:43;1.88;;;0.80;;
17631;SDS011;8934;51.194;17.150;2024-02-23T15:23:30;1.90;;;0.80;;
17631;SDS011;8934;51.194;17.150;2024-02-23T15:26:17;4.95;;;1.08;;
17631;SDS011;8934;51.194;17.150;2024-02-23T15:29:05;3.40;;;1.38;;
17631;SDS011;8934;51.194;17.150;2024-02-23T15:31:53;2.45;;;1.60;;
17631;SDS011;8934;51.194;17.150;2024-02-23T15:34:41;4.22;;;1.55;;
17631;SDS011;8934;51.194;17.150;2024-02-23T15:37:28;3.88;;;1.05;;
17631;SDS011;8934;51.194;17.150;2024-02-23T15:40:16;2.85;;;1.10;;
17631;SDS011;8934;51.194;17.150;2024-02-23T15:43:03;3.78;;;1.50;;
17631;SDS011;8934;51.194;17.150;2024-02-23T15:45:51;4.30;;;2.13;;
17631;SDS011;8934;51.194;17.150;2024-02-23T15:48:40;4.45;;;1.88;;
17631;SDS011;8934;51.194;17.150;2024-02-23T15:51:27;3.63;;;1.40;;
17631;SDS011;8934;51.194;17.150;2024-02-23T15:54:36;1.95;;;1.48;;
17631;SDS011;8934;51.194;17.150;2024-02-23T15:57:24;3.85;;;1.52;;
17631;SDS011;8934;51.194;17.150;2024-02-23T16:00:11;4.78;;;1.45;;
17631;SDS011;8934;51.194;17.150;2024-02-23T16:02:59;3.17;;;1.30;;
17631;SDS011;8934;51.194;17.150;2024-02-23T16:05:48;1.40;;;1.17;;
17631;SDS011;8934;51.194;17.150;2024-02-23T16:08:40;1.23;;;0.82;;
17631;SDS011;8934;51.194;17.150;2024-02-23T16:11:29;1.98;;;1.13;;
17631;SDS011;8934;51.194;17.150;2024-02-23T16:14:18;1.95;;;0.73;;
17631;SDS011;8934;51.194;17.150;2024-02-23T16:17:05;3.78;;;1.63;;
17631;SDS011;8934;51.194;17.150;2024-02-23T16:19:52;2.70;;;0.80;;
17631;SDS011;8934;51.194;17.150;2024-02-23T16:22:42;1.40;;;0.85;;
17631;SDS011;8934;51.194;17.150;2024-02-23T16:25:30;3.03;;;1.20;;
17631;SDS011;8934;51.194;17.150;2024-02-23T16:28:18;1.52;;;1.08;;
17631;SDS011;8934;51.194;17.150;2024-02-23T16:31:05;1.25;;;1.15;;
17631;SDS011;8934;51.194;17.150;2024-02-23T16:33:53;4.68;;;2.13;;
17631;SDS011;8934;51.194;17.150;2024-02-23T16:36:40;7.35;;;2.72;;
17631;SDS011;8934;51.194;17.150;2024-02-23T16:39:31;6.35;;;3.10;;
17631;SDS011;8934;51.194;17.150;2024-02-23T16:42:18;6.75;;;3.20;;
17631;SDS011;8934;51.194;17.150;2024-02-23T16:45:05;4.88;;;2.50;;
17631;SDS011;8934;51.194;17.150;2024-02-23T16:47:53;7.32;;;2.97;;
17631;SDS011;8934;51.194;17.150;2024-02-23T16:50:41;6.57;;;2.90;;
17631;SDS011;8934;51.194;17.150;2024-02-23T16:53:32;10.55;;;3.25;;
17631;SDS011;8934;51.194;17.150;2024-02-23T16:56:21;8.05;;;2.70;;